createdAt,value
2023-05-04T00:00:24.546Z,2.70
2023-05-04T00:02:52.193Z,3.13
2023-05-04T00:05:21.395Z,2.78
2023-05-04T00:07:49.353Z,2.65
2023-05-04T00:10:17.395Z,2.67
2023-05-04T00:12:46.246Z,3.45
2023-05-04T00:15:13.815Z,3.13
2023-05-04T00:17:41.572Z,2.75
2023-05-04T00:20:10.169Z,2.85
2023-05-04T00:22:39.077Z,3.20
2023-05-04T00:25:07.141Z,3.30
2023-05-04T00:27:35.103Z,3.10
2023-05-04T00:30:02.959Z,3.13
2023-05-04T00:32:31.124Z,2.65
2023-05-04T00:34:58.618Z,3.20
2023-05-04T00:37:26.190Z,3.53
2023-05-04T00:39:55.154Z,3.20
2023-05-04T00:42:22.665Z,2.88
2023-05-04T00:44:50.535Z,2.83
2023-05-04T00:47:19.748Z,3.10
2023-05-04T00:49:47.551Z,2.58
2023-05-04T00:52:15.596Z,2.72
2023-05-04T00:54:43.997Z,3.08
2023-05-04T00:57:13.086Z,3.67
2023-05-04T00:59:40.601Z,3.60
2023-05-04T01:02:08.178Z,3.60
2023-05-04T01:04:35.740Z,3.30
2023-05-04T01:07:07.197Z,3.20
2023-05-04T01:09:37.884Z,3.30
2023-05-04T01:12:06.994Z,3.75
2023-05-04T01:14:36.850Z,3.70
2023-05-04T01:17:05.323Z,3.60
2023-05-04T01:19:33.209Z,3.20
2023-05-04T01:22:02.606Z,3.30
2023-05-04T01:24:30.881Z,3.90
2023-05-04T01:27:02.364Z,4.00
2023-05-04T01:29:32.990Z,3.80
2023-05-04T01:32:00.977Z,3.33
2023-05-04T01:34:28.530Z,3.50
2023-05-04T01:36:56.272Z,4.07
2023-05-04T01:39:25.075Z,3.80
2023-05-04T01:41:52.571Z,3.50
2023-05-04T01:44:20.632Z,3.70
2023-05-04T01:46:48.112Z,4.30
2023-05-04T01:49:15.934Z,4.28
2023-05-04T01:51:43.647Z,4.32
2023-05-04T01:54:11.127Z,3.95
2023-05-04T01:56:40.065Z,4.40
2023-05-04T01:59:07.637Z,4.15
2023-05-04T02:01:35.191Z,4.40
2023-05-04T02:04:02.926Z,5.20
2023-05-04T02:06:30.861Z,4.22
2023-05-04T02:08:58.402Z,4.25
2023-05-04T02:11:26.063Z,4.22
2023-05-04T02:13:54.978Z,4.57
2023-05-04T02:16:24.044Z,4.25
2023-05-04T02:18:52.299Z,5.00
2023-05-04T02:21:20.129Z,4.60
2023-05-04T02:23:47.616Z,5.45
2023-05-04T02:26:15.114Z,4.93
2023-05-04T02:28:42.814Z,5.68
2023-05-04T02:31:11.976Z,4.57
2023-05-04T02:33:39.475Z,4.78
2023-05-04T02:36:07.384Z,5.40
2023-05-04T02:38:34.902Z,5.20
2023-05-04T02:41:03.085Z,5.10
2023-05-04T02:43:30.820Z,8.23
2023-05-04T02:45:58.283Z,5.93
2023-05-04T02:48:27.213Z,5.65
2023-05-04T02:50:54.786Z,5.22
2023-05-04T02:53:22.302Z,5.40
2023-05-04T02:55:49.858Z,5.43
2023-05-04T02:58:17.661Z,7.55
2023-05-04T03:00:45.235Z,5.60
2023-05-04T03:03:12.748Z,6.53
2023-05-04T03:05:41.857Z,6.35
2023-05-04T03:08:09.347Z,6.82
2023-05-04T03:10:37.012Z,5.78
2023-05-04T03:13:06.236Z,6.97
2023-05-04T03:15:33.820Z,6.07
2023-05-04T03:18:01.682Z,6.35
2023-05-04T03:20:29.484Z,5.65
2023-05-04T03:22:58.325Z,5.90
2023-05-04T03:25:26.101Z,5.78
2023-05-04T03:27:53.737Z,6.45
2023-05-04T03:30:23.968Z,5.32
2023-05-04T03:32:51.521Z,5.95
2023-05-04T03:35:24.692Z,5.38
2023-05-04T03:37:52.614Z,6.40
2023-05-04T03:40:23.258Z,6.15
2023-05-04T03:42:51.583Z,5.28
2023-05-04T03:45:19.213Z,5.57
2023-05-04T03:47:46.795Z,6.30
2023-05-04T03:50:14.367Z,5.70
2023-05-04T03:52:41.865Z,6.30
2023-05-04T03:55:10.355Z,6.25
2023-05-04T03:57:39.183Z,5.22
2023-05-04T04:00:07.340Z,6.43
2023-05-04T04:02:35.063Z,5.78
2023-05-04T04:05:03.474Z,6.00
2023-05-04T04:07:30.950Z,6.07
2023-05-04T04:09:58.494Z,6.13
2023-05-04T04:12:26.049Z,5.65
2023-05-04T04:14:56.176Z,6.45
2023-05-04T04:17:23.833Z,5.90
2023-05-04T04:19:51.906Z,7.15
2023-05-04T04:22:19.405Z,5.88
2023-05-04T04:24:47.009Z,5.90
2023-05-04T04:27:14.508Z,5.55
2023-05-04T04:29:42.424Z,5.57
2023-05-04T04:32:11.543Z,5.80
2023-05-04T04:34:39.074Z,5.95
2023-05-04T04:37:06.594Z,5.50
2023-05-04T04:39:34.211Z,5.20
2023-05-04T04:42:02.584Z,5.18
2023-05-04T04:44:30.179Z,5.93
2023-05-04T04:46:57.935Z,5.70
2023-05-04T04:49:27.469Z,6.03
2023-05-04T04:51:55.492Z,5.95
2023-05-04T04:54:23.243Z,5.53
2023-05-04T04:56:50.753Z,5.45
2023-05-04T04:59:18.247Z,8.65
2023-05-04T05:01:45.894Z,5.38
2023-05-04T05:04:13.474Z,5.35
2023-05-04T05:06:43.504Z,5.50
2023-05-04T05:09:11.097Z,4.93
2023-05-04T05:11:38.698Z,5.15
2023-05-04T05:14:06.536Z,4.68
2023-05-04T05:16:34.287Z,4.43
2023-05-04T05:19:02.142Z,4.72
2023-05-04T05:21:30.323Z,4.70
2023-05-04T05:23:59.597Z,4.90
2023-05-04T05:26:27.297Z,4.43
2023-05-04T05:28:54.872Z,4.47
2023-05-04T05:31:22.498Z,5.18
2023-05-04T05:33:50.175Z,4.53
2023-05-04T05:36:17.893Z,4.05
2023-05-04T05:38:46.336Z,4.43
2023-05-04T05:41:16.332Z,4.13
2023-05-04T05:43:43.909Z,4.05
2023-05-04T05:46:11.727Z,3.85
2023-05-04T05:48:39.291Z,4.15
2023-05-04T05:51:06.899Z,4.10
2023-05-04T05:53:34.829Z,3.88
2023-05-04T05:56:02.410Z,3.95
2023-05-04T05:58:31.570Z,3.92
2023-05-04T06:00:59.241Z,4.25
2023-05-04T06:03:26.863Z,4.15
2023-05-04T06:05:54.591Z,3.63
2023-05-04T06:08:22.285Z,4.97
2023-05-04T06:10:51.539Z,4.68
2023-05-04T06:13:19.117Z,5.18
2023-05-04T06:15:53.044Z,4.13
2023-05-04T06:18:21.190Z,4.50
2023-05-04T06:20:48.714Z,4.63
2023-05-04T06:23:17.505Z,4.10
2023-05-04T06:25:45.076Z,4.07
2023-05-04T06:28:13.278Z,4.38
2023-05-04T06:30:40.882Z,3.88
2023-05-04T06:33:09.849Z,4.10
2023-05-04T06:35:37.434Z,4.03
2023-05-04T06:38:05.225Z,4.20
2023-05-04T06:40:32.809Z,4.53
2023-05-04T06:43:00.416Z,4.45
2023-05-04T06:45:27.970Z,4.07
2023-05-04T06:47:55.534Z,4.10
2023-05-04T06:50:24.554Z,4.15
2023-05-04T06:52:52.574Z,3.88
2023-05-04T06:55:20.271Z,4.05
2023-05-04T06:57:47.945Z,4.28
2023-05-04T07:00:16.076Z,4.25
2023-05-04T07:02:43.611Z,4.25
2023-05-04T07:05:11.294Z,4.35
2023-05-04T07:07:40.244Z,3.92
2023-05-04T07:10:08.296Z,4.53
2023-05-04T07:12:35.941Z,4.50
2023-05-04T07:15:03.544Z,4.00
2023-05-04T07:17:32.235Z,6.70
2023-05-04T07:20:00.261Z,4.32
2023-05-04T07:22:28.206Z,3.80
2023-05-04T07:24:58.159Z,5.32
2023-05-04T07:27:25.630Z,3.58
2023-05-04T07:29:53.656Z,3.78
2023-05-04T07:32:21.154Z,3.50
2023-05-04T07:34:48.703Z,3.65
2023-05-04T07:37:16.730Z,4.18
2023-05-04T07:39:44.243Z,3.90
2023-05-04T07:42:14.525Z,3.20
2023-05-04T07:44:42.216Z,3.70
2023-05-04T07:47:10.171Z,3.08
2023-05-04T07:49:37.675Z,3.03
2023-05-04T07:52:05.643Z,3.10
2023-05-04T07:54:33.261Z,3.05
2023-05-04T07:57:03.285Z,3.60
2023-05-04T07:59:32.485Z,3.70
2023-05-04T08:02:00.052Z,3.10
2023-05-04T08:04:27.562Z,4.28
2023-05-04T08:06:55.234Z,3.30
2023-05-04T08:09:22.833Z,3.00
2023-05-04T08:11:50.358Z,3.20
2023-05-04T08:14:17.942Z,3.78
2023-05-04T08:16:47.449Z,3.00
2023-05-04T08:19:14.960Z,3.58
2023-05-04T08:21:42.900Z,2.80
2023-05-04T08:24:10.728Z,3.03
2023-05-04T08:26:39.602Z,3.10
2023-05-04T08:29:08.419Z,3.17
2023-05-04T08:31:36.081Z,3.47
2023-05-04T08:34:09.276Z,2.83
2023-05-04T08:36:36.872Z,2.67
2023-05-04T08:39:04.522Z,3.30
2023-05-04T08:41:32.154Z,4.00
2023-05-04T08:43:59.808Z,2.78
2023-05-04T08:46:30.868Z,2.60
2023-05-04T08:48:58.744Z,3.50
2023-05-04T08:51:27.784Z,3.40
2023-05-04T08:53:55.665Z,3.10
2023-05-04T08:56:23.526Z,3.70
2023-05-04T08:58:51.827Z,3.05
2023-05-04T09:01:19.952Z,2.63
2023-05-04T09:03:48.038Z,2.45
2023-05-04T09:06:16.031Z,2.28
2023-05-04T09:08:44.888Z,3.15
2023-05-04T09:11:12.521Z,2.50
2023-05-04T09:13:40.369Z,2.50
2023-05-04T09:16:08.160Z,2.70
2023-05-04T09:18:40.097Z,2.53
2023-05-04T09:21:07.874Z,2.95
2023-05-04T09:23:48.241Z,3.05
2023-05-04T09:26:15.931Z,2.75
2023-05-04T09:28:44.056Z,2.70
2023-05-04T09:31:11.912Z,2.72
2023-05-04T09:33:39.681Z,2.20
2023-05-04T09:36:16.552Z,2.88
2023-05-04T09:38:44.441Z,2.97
2023-05-04T09:41:13.345Z,2.90
2023-05-04T09:43:41.781Z,2.67
2023-05-04T09:46:16.400Z,2.63
2023-05-04T09:48:51.295Z,2.58
2023-05-04T09:51:20.881Z,2.70
2023-05-04T09:53:49.217Z,2.60
2023-05-04T09:56:25.459Z,3.60
2023-05-04T09:58:53.715Z,2.60
2023-05-04T10:01:21.770Z,3.60
2023-05-04T10:03:49.352Z,3.17
2023-05-04T10:06:17.696Z,2.45
2023-05-04T10:08:45.637Z,3.10
2023-05-04T10:11:15.024Z,3.20
2023-05-04T10:13:43.983Z,2.70
2023-05-04T10:16:18.356Z,2.83
2023-05-04T10:18:53.552Z,3.08
2023-05-04T10:21:31.008Z,4.43
2023-05-04T10:24:17.622Z,3.33
2023-05-04T10:27:03.573Z,3.08
2023-05-04T10:29:39.572Z,2.70
2023-05-04T10:32:17.771Z,3.75
2023-05-04T10:34:45.432Z,3.47
2023-05-04T10:37:17.330Z,2.70
2023-05-04T10:39:51.795Z,3.13
2023-05-04T10:42:19.356Z,3.15
2023-05-04T10:44:53.671Z,3.17
2023-05-04T10:47:32.484Z,3.38
2023-05-04T10:50:04.853Z,2.60
2023-05-04T10:52:32.761Z,2.67
2023-05-04T10:55:00.851Z,3.00
2023-05-04T10:57:29.474Z,3.28
2023-05-04T10:59:59.479Z,3.00
2023-05-04T11:02:28.444Z,3.35
2023-05-04T11:05:05.821Z,2.72
2023-05-04T11:07:34.297Z,3.72
2023-05-04T11:10:02.484Z,3.60
2023-05-04T11:12:30.111Z,2.45
2023-05-04T11:15:09.311Z,2.55
2023-05-04T11:17:45.876Z,3.40
2023-05-04T11:20:20.442Z,3.50
2023-05-04T11:22:48.247Z,3.15
2023-05-04T11:25:16.996Z,3.10
2023-05-04T11:27:44.872Z,3.70
2023-05-04T11:30:15.701Z,2.88
2023-05-04T11:32:44.075Z,3.22
2023-05-04T11:38:08.317Z,2.67
2023-05-04T11:40:36.366Z,3.30
2023-05-04T11:43:04.528Z,2.72
2023-05-04T11:45:34.457Z,2.42
2023-05-04T11:48:02.038Z,3.15
2023-05-04T11:50:30.361Z,2.85
2023-05-04T11:56:02.931Z,3.28
2023-05-04T11:58:30.856Z,2.90
2023-05-04T12:00:59.888Z,3.20
2023-05-04T12:03:43.795Z,3.75
2023-05-04T12:06:18.092Z,3.65
2023-05-04T12:08:46.700Z,3.45
2023-05-04T12:11:14.892Z,3.60
2023-05-04T12:13:42.895Z,3.83
2023-05-04T12:19:06.766Z,3.92
2023-05-04T12:21:34.813Z,3.03
2023-05-04T12:24:03.309Z,3.80
2023-05-04T12:26:32.710Z,4.30
2023-05-04T12:29:00.245Z,3.45
2023-05-04T12:40:32.774Z,4.55
2023-05-04T12:43:00.289Z,4.00
2023-05-04T12:45:27.741Z,3.72
2023-05-04T13:05:10.137Z,3.35
2023-05-04T13:07:39.028Z,3.80
2023-05-04T13:10:07.146Z,4.00
2023-05-04T13:15:28.002Z,3.67
2023-05-04T13:17:55.614Z,3.25
2023-05-04T13:20:23.624Z,3.15
2023-05-04T13:22:52.867Z,3.30
2023-05-04T13:25:20.669Z,3.17
2023-05-04T13:31:28.408Z,3.35
2023-05-04T13:34:20.319Z,3.38
2023-05-04T13:47:03.986Z,3.47
2023-05-04T13:49:33.378Z,3.17
2023-05-04T13:52:00.907Z,3.33
2023-05-04T13:54:28.663Z,3.40
2023-05-04T13:56:57.490Z,2.88
2023-05-04T13:59:24.973Z,2.92
2023-05-04T14:01:55.841Z,2.90
2023-05-04T14:04:23.880Z,3.67
2023-05-04T14:06:51.573Z,2.97
2023-05-04T14:23:41.260Z,3.17
2023-05-04T14:26:08.746Z,2.83
2023-05-04T14:28:37.541Z,3.00
2023-05-04T14:58:20.967Z,2.63
2023-05-04T15:01:13.862Z,3.08
2023-05-04T15:03:47.123Z,2.97
2023-05-04T15:06:14.697Z,2.37
2023-05-04T15:08:42.189Z,2.90
2023-05-04T15:14:01.681Z,3.00
2023-05-04T15:16:33.007Z,2.50
2023-05-04T15:19:00.872Z,2.55
2023-05-04T15:21:29.179Z,3.00
2023-05-04T15:23:56.733Z,2.53
2023-05-04T15:26:24.561Z,2.60
2023-05-04T15:28:53.994Z,2.55
2023-05-04T15:31:22.106Z,2.13
2023-05-04T15:33:51.010Z,1.90
2023-05-04T15:36:18.530Z,2.47
2023-05-04T15:38:46.485Z,2.20
2023-05-04T15:41:14.275Z,2.78
2023-05-04T15:43:41.983Z,2.08
2023-05-04T15:46:09.454Z,2.30
2023-05-04T15:48:38.618Z,2.55
2023-05-04T15:51:10.793Z,2.05
2023-05-04T15:53:38.346Z,2.65
2023-05-04T15:56:06.370Z,1.60
2023-05-04T15:58:34.080Z,1.88
2023-05-04T16:01:04.143Z,1.88
2023-05-04T16:03:32.194Z,1.65
2023-05-04T16:06:00.211Z,1.80
2023-05-04T16:08:29.171Z,2.45
2023-05-04T16:10:57.672Z,1.70
2023-05-04T16:13:25.613Z,2.05
2023-05-04T16:15:55.479Z,2.08
2023-05-04T16:18:23.033Z,1.60
2023-05-04T16:20:50.596Z,1.95
2023-05-04T16:23:18.798Z,1.70
2023-05-04T16:25:47.598Z,1.85
2023-05-04T16:28:15.279Z,1.35
2023-05-04T16:30:42.993Z,2.10
2023-05-04T16:33:10.625Z,1.95
2023-05-04T16:35:38.354Z,2.42
2023-05-04T16:38:05.847Z,1.90
2023-05-04T16:40:33.835Z,1.65
2023-05-04T16:43:02.823Z,1.75
2023-05-04T16:45:31.827Z,1.45
2023-05-04T16:47:59.655Z,2.08
2023-05-04T16:50:27.163Z,2.22
2023-05-04T16:52:54.863Z,3.03
2023-05-04T16:55:22.568Z,1.63
2023-05-04T16:57:50.832Z,2.15
2023-05-04T17:00:20.270Z,1.63
2023-05-04T17:02:47.928Z,2.13
2023-05-04T17:05:15.498Z,1.75
2023-05-04T17:07:43.475Z,2.22
2023-05-04T17:10:11.456Z,1.88
2023-05-04T17:12:39.215Z,1.67
2023-05-04T17:15:07.271Z,1.75
2023-05-04T17:17:36.349Z,1.95
2023-05-04T17:20:05.007Z,2.55
2023-05-04T17:22:32.929Z,1.85
2023-05-04T17:25:03.155Z,2.10
2023-05-04T17:27:30.824Z,1.70
2023-05-04T17:29:58.353Z,1.35
2023-05-04T17:32:25.829Z,1.60
2023-05-04T17:34:54.957Z,3.67
2023-05-04T17:37:22.857Z,1.95
2023-05-04T17:39:50.456Z,4.00
2023-05-04T17:42:18.742Z,2.00
2023-05-04T17:44:46.616Z,1.92
2023-05-04T17:47:14.068Z,1.85
2023-05-04T17:49:41.677Z,2.10
2023-05-04T17:52:12.044Z,2.10
2023-05-04T17:54:41.079Z,2.00
2023-05-04T17:57:08.671Z,1.67
2023-05-04T17:59:36.375Z,2.13
2023-05-04T18:02:04.170Z,1.52
2023-05-04T18:04:32.391Z,1.83
2023-05-04T18:06:59.898Z,1.90
2023-05-04T18:09:29.220Z,1.95
2023-05-04T18:11:57.098Z,2.17
2023-05-04T18:14:26.955Z,1.90
2023-05-04T18:16:54.475Z,1.77
2023-05-04T18:19:24.785Z,2.83
2023-05-04T18:21:52.439Z,1.83
2023-05-04T18:24:19.910Z,1.75
2023-05-04T18:26:49.388Z,1.45
2023-05-04T18:29:19.221Z,1.83
2023-05-04T18:31:47.261Z,1.58
2023-05-04T18:34:14.958Z,1.83
2023-05-04T18:36:42.447Z,2.38
2023-05-04T18:39:10.113Z,2.40
2023-05-04T18:41:37.695Z,1.88
2023-05-04T18:44:09.087Z,1.90
2023-05-04T18:46:37.378Z,1.92
2023-05-04T18:49:05.147Z,2.13
2023-05-04T18:51:32.641Z,2.63
2023-05-04T18:54:00.262Z,1.70
2023-05-04T18:56:27.910Z,2.03
2023-05-04T18:58:55.394Z,1.60
2023-05-04T19:01:24.177Z,1.80
2023-05-04T19:03:52.028Z,1.90
2023-05-04T19:06:20.634Z,1.88
2023-05-04T19:08:48.360Z,1.88
2023-05-04T19:11:16.136Z,2.17
2023-05-04T19:13:43.881Z,2.53
2023-05-04T19:16:12.628Z,1.83
2023-05-04T19:18:43.213Z,2.15
2023-05-04T19:21:10.878Z,1.75
2023-05-04T19:23:38.369Z,1.92
2023-05-04T19:26:06.004Z,2.00
2023-05-04T19:28:33.495Z,1.52
2023-05-04T19:31:00.957Z,2.05
2023-05-04T19:33:40.432Z,1.80
2023-05-04T19:36:13.939Z,1.90
2023-05-04T19:38:41.625Z,1.70
2023-05-04T19:41:09.085Z,1.88
2023-05-04T19:43:41.181Z,1.92
2023-05-04T19:46:09.375Z,1.77
2023-05-04T19:48:36.986Z,1.80
2023-05-04T19:51:04.895Z,1.60
2023-05-04T19:53:33.725Z,1.70
2023-05-04T19:56:01.346Z,3.95
2023-05-04T19:58:30.838Z,1.90
2023-05-04T20:00:58.566Z,2.10
2023-05-04T20:03:26.236Z,1.83
2023-05-04T20:05:54.005Z,1.60
2023-05-04T20:08:21.754Z,1.63
2023-05-04T20:10:50.602Z,1.88
2023-05-04T20:13:18.506Z,1.83
2023-05-04T20:15:46.882Z,2.42
2023-05-04T20:18:14.355Z,1.92
2023-05-04T20:20:41.904Z,1.85
2023-05-04T20:23:09.636Z,1.50
2023-05-04T20:25:37.124Z,1.77
2023-05-04T20:28:06.811Z,1.92
2023-05-04T20:30:34.395Z,1.63
2023-05-04T20:33:01.880Z,1.90
2023-05-04T20:35:29.335Z,2.08
2023-05-04T20:37:56.849Z,1.90
2023-05-04T20:40:25.103Z,1.60
2023-05-04T20:42:52.613Z,1.45
2023-05-04T20:45:21.584Z,1.90
2023-05-04T20:47:49.545Z,1.90
2023-05-04T20:50:17.930Z,1.65
2023-05-04T20:52:45.817Z,1.90
2023-05-04T20:55:13.354Z,1.63
2023-05-04T20:57:41.012Z,1.50
2023-05-04T21:00:09.472Z,4.68
2023-05-04T21:02:38.567Z,2.40
2023-05-04T21:05:06.585Z,1.80
2023-05-04T21:07:34.221Z,3.58
2023-05-04T21:10:01.754Z,1.63
2023-05-04T21:12:29.255Z,1.65
2023-05-04T21:14:56.926Z,1.90
2023-05-04T21:17:25.528Z,1.73
2023-05-04T21:19:54.426Z,2.00
2023-05-04T21:22:22.034Z,1.45
2023-05-04T21:24:49.657Z,1.88
2023-05-04T21:27:17.185Z,1.70
2023-05-04T21:29:44.676Z,1.60
2023-05-04T21:32:12.242Z,1.60
2023-05-04T21:34:39.893Z,1.48
2023-05-04T21:37:08.778Z,1.70
2023-05-04T21:39:36.364Z,1.63
2023-05-04T21:42:03.964Z,2.00
2023-05-04T21:44:31.467Z,1.55
2023-05-04T21:46:58.938Z,2.65
2023-05-04T21:49:27.142Z,1.80
2023-05-04T21:51:54.729Z,1.40
2023-05-04T21:54:25.676Z,1.52
2023-05-04T21:56:53.436Z,1.58
2023-05-04T21:59:21.026Z,1.77
2023-05-04T22:01:48.864Z,1.70
2023-05-04T22:04:16.388Z,1.63
2023-05-04T22:06:44.689Z,1.85
2023-05-04T22:09:13.401Z,2.20
2023-05-04T22:11:42.309Z,2.42
2023-05-04T22:14:09.930Z,2.08
2023-05-04T22:16:37.687Z,1.60
2023-05-04T22:19:05.634Z,1.58
2023-05-04T22:21:33.538Z,2.47
2023-05-04T22:24:01.177Z,1.58
2023-05-04T22:26:28.743Z,1.60
2023-05-04T22:28:57.656Z,2.63
2023-05-04T22:31:25.225Z,1.90
2023-05-04T22:33:52.950Z,2.03
2023-05-04T22:36:20.504Z,2.17
2023-05-04T22:38:47.958Z,1.30
2023-05-04T22:41:15.550Z,1.60
2023-05-04T22:43:43.183Z,2.20
2023-05-04T22:46:16.878Z,1.38
2023-05-04T22:48:46.588Z,1.30
2023-05-04T22:51:14.270Z,1.92
2023-05-04T22:53:41.796Z,1.67
2023-05-04T22:56:09.636Z,2.10
2023-05-04T22:58:37.291Z,1.48
2023-05-04T23:01:09.071Z,1.75
2023-05-04T23:03:38.172Z,2.20
2023-05-04T23:06:06.423Z,1.92
2023-05-04T23:08:33.965Z,2.05
2023-05-04T23:11:01.490Z,1.88
2023-05-04T23:13:29.001Z,1.90
2023-05-04T23:15:56.562Z,1.80
2023-05-04T23:18:24.254Z,2.22
2023-05-04T23:20:53.253Z,2.00
2023-05-04T23:23:20.828Z,1.90
2023-05-04T23:25:48.441Z,1.48
2023-05-04T23:28:15.970Z,1.83
2023-05-04T23:30:43.464Z,1.67
2023-05-04T23:33:11.035Z,1.95
2023-05-04T23:35:38.600Z,1.70
2023-05-04T23:38:07.438Z,2.05
2023-05-04T23:40:35.971Z,1.65
2023-05-04T23:43:03.488Z,2.00
2023-05-04T23:45:30.936Z,2.70
2023-05-04T23:47:58.484Z,2.00
2023-05-04T23:50:26.043Z,2.00
2023-05-04T23:52:53.925Z,1.83
2023-05-04T23:55:22.978Z,2.20
2023-05-04T23:57:51.329Z,2.08
